Morven, Georgia
Current Conditions -  °F | °C
As of 1:53 PM on Friday 28 Nov 2014 (Local Time) from KVLD Reporting Station
Clear Clear  
Wind Chill: 52°   Ceiling: Unl
Heat Index: 52°   Visibility: 10mi
Dew Point: 28°   Wind: 3mph
Humidity: 40%   Direction: NA
Pressure: 30.32"   Gusts: NA
Location:  30.94°N, 83.5°W
Report Text: KVLD 281853Z VRB03KT 10SM CLR 11/M02 A3032 RMK AO2 SLP277 T01111022 $
Loading
Personal Weather Stations






























Interactive Weather Map New forecast layout! Learn more

10-Day Weather Forecast

Advertisements
Track Severe Weather on mobile